Time;durP1;ratioP1;P1;durP2;ratioP2;P2;SDS_P1;SDS_P2;PMS_P1;PMS_P2;Temp;Humidity;BMP_temperature;BMP_pressure;BME280_temperature;BME280_humidity;BME280_pressure;Samples;Min_cycle;Max_cycle;Signal;HPM_P1;HPM_P2
2024/04/15 00:01:05;;;;;;;1999.90;999.90;;;14.60;99.90;;;;;;5311284;26;20343;-80
2024/04/15 00:03:31;;;;;;;1999.90;999.90;;;14.40;99.90;;;;;;5311747;27;20037;-80
2024/04/15 00:05:57;;;;;;;1999.90;999.90;;;14.30;99.90;;;;;;5311964;26;20035;-79
2024/04/15 00:08:23;;;;;;;1999.90;999.90;;;14.30;99.90;;;;;;5312262;27;20021;-80
2024/04/15 00:10:50;;;;;;;1999.90;999.90;;;14.20;99.90;;;;;;5312770;26;20037;-80
2024/04/15 00:13:17;;;;;;;1999.90;999.90;;;14.10;99.90;;;;;;5312237;27;20025;-81
2024/04/15 00:15:43;;;;;;;1999.90;999.90;;;14.20;99.90;;;;;;5311214;26;20033;-80
2024/04/15 00:18:09;;;;;;;1999.90;999.90;;;14.20;99.90;;;;;;5309814;27;20034;-81
2024/04/15 00:20:38;;;;;;;1999.90;999.90;;;14.30;99.90;;;;;;5311736;26;20380;-79
2024/04/15 00:23:04;;;;;;;1999.90;999.90;;;14.20;99.90;;;;;;5312081;27;20025;-80
2024/04/15 00:25:30;;;;;;;1999.90;999.90;;;14.20;99.90;;;;;;5311553;26;20029;-80
2024/04/15 00:27:56;;;;;;;1999.90;999.90;;;14.20;99.90;;;;;;5312065;27;20371;-80
2024/04/15 00:30:22;;;;;;;1999.90;999.90;;;14.20;99.90;;;;;;5312191;26;21557;-80
2024/04/15 00:32:48;;;;;;;1999.90;999.90;;;14.20;99.90;;;;;;5311521;27;20044;-79
2024/04/15 00:35:15;;;;;;;1999.90;999.90;;;14.30;99.90;;;;;;5311550;26;20029;-80
2024/04/15 00:37:41;;;;;;;1999.90;999.90;;;14.30;99.90;;;;;;5310920;26;20365;-80
2024/04/15 00:40:08;;;;;;;1999.90;999.90;;;14.30;99.90;;;;;;5311585;27;20041;-79
2024/04/15 00:42:34;;;;;;;1999.90;999.90;;;14.30;99.90;;;;;;5345424;26;20032;-73
2024/04/15 00:45:00;;;;;;;1999.90;999.90;;;14.40;99.90;;;;;;5346917;26;20029;-73
2024/04/15 00:47:26;;;;;;;1999.90;999.90;;;14.50;99.90;;;;;;5338665;26;20040;-72
2024/04/15 00:49:52;;;;;;;1999.90;999.90;;;14.70;99.90;;;;;;5346512;26;20028;-73
2024/04/15 00:52:18;;;;;;;1999.90;999.90;;;14.80;99.90;;;;;;5343851;26;20033;-73
2024/04/15 00:54:45;;;;;;;1999.90;999.90;;;14.60;99.90;;;;;;5347021;26;20489;-73
2024/04/15 00:57:11;;;;;;;1999.90;999.90;;;14.40;99.90;;;;;;5314610;26;20033;-73
2024/04/15 00:59:38;;;;;;;1999.90;999.90;;;14.40;99.90;;;;;;5312252;26;20029;-73
2024/04/15 01:02:04;;;;;;;1999.90;999.90;;;14.40;99.90;;;;;;5310133;26;20042;-73
2024/04/15 01:04:30;;;;;;;1999.90;999.90;;;14.50;99.90;;;;;;5310408;27;20034;-73
2024/04/15 01:06:57;;;;;;;1999.90;999.90;;;14.50;99.90;;;;;;5311621;26;20030;-73
2024/04/15 01:09:23;;;;;;;1999.90;999.90;;;14.20;99.90;;;;;;5310199;27;20021;-73
2024/04/15 01:11:49;;;;;;;1999.90;999.90;;;14.00;99.90;;;;;;5311632;26;20478;-73
2024/04/15 01:14:15;;;;;;;1999.90;999.90;;;14.00;99.90;;;;;;5309381;27;20029;-73
2024/04/15 01:16:41;;;;;;;1999.90;999.90;;;14.10;99.90;;;;;;5310402;26;20038;-73
2024/04/15 01:19:08;;;;;;;1999.90;999.90;;;14.10;99.90;;;;;;5312026;26;20031;-73
2024/04/15 01:21:34;;;;;;;1999.90;999.90;;;14.20;99.90;;;;;;5311463;26;20045;-72
2024/04/15 01:24:00;;;;;;;1999.90;999.90;;;14.30;99.90;;;;;;5311935;26;20030;-73
2024/04/15 01:26:28;;;;;;;1999.90;999.90;;;14.20;99.90;;;;;;5308910;26;20037;-73
2024/04/15 01:28:54;;;;;;;1999.90;999.90;;;14.30;99.90;;;;;;5311820;26;20021;-73
2024/04/15 01:31:20;;;;;;;1999.90;999.90;;;14.40;99.90;;;;;;5309928;26;20045;-73
2024/04/15 01:33:46;;;;;;;1999.90;999.90;;;14.20;99.90;;;;;;5311923;26;20030;-73
2024/04/15 01:36:12;;;;;;;1999.90;999.90;;;14.10;99.90;;;;;;5324550;26;20379;-73
2024/04/15 01:38:38;;;;;;;1999.90;999.90;;;14.10;99.90;;;;;;5345161;26;20038;-73
2024/04/15 01:41:04;;;;;;;1999.90;999.90;;;14.10;99.90;;;;;;5332354;26;20140;-73
2024/04/15 01:43:30;;;;;;;1999.90;999.90;;;14.20;99.90;;;;;;5311164;26;20034;-73
2024/04/15 01:45:56;;;;;;;1999.90;999.90;;;14.40;99.90;;;;;;5314987;26;20056;-80
2024/04/15 01:48:23;;;;;;;1999.90;999.90;;;14.50;99.90;;;;;;5343725;26;20385;-80
2024/04/15 01:50:49;;;;;;;1999.90;999.90;;;14.50;99.90;;;;;;5345327;26;20033;-79
2024/04/15 01:53:15;;;;;;;1999.90;999.90;;;14.60;99.90;;;;;;5345231;26;20033;-79
2024/04/15 01:55:44;;;;;;;1999.90;999.90;;;14.50;99.90;;;;;;5337207;26;20104;-79
2024/04/15 01:58:10;;;;;;;1999.90;999.90;;;14.30;99.90;;;;;;5309331;26;20377;-79
2024/04/15 02:00:37;;;;;;;1999.90;999.90;;;14.20;99.90;;;;;;5307443;26;20034;-79
2024/04/15 02:03:03;;;;;;;1999.90;999.90;;;14.10;99.90;;;;;;5316709;26;20485;-79
2024/04/15 02:05:29;;;;;;;1999.90;999.90;;;14.10;99.90;;;;;;5329704;26;20045;-79
2024/04/15 02:07:56;;;;;;;1999.90;999.90;;;14.10;99.90;;;;;;5317649;26;20006;-80
2024/04/15 02:10:22;;;;;;;1999.90;999.90;;;14.10;99.90;;;;;;5337574;26;20058;-79
2024/04/15 02:12:49;;;;;;;1999.90;999.90;;;14.10;99.90;;;;;;5311797;26;20022;-79
2024/04/15 02:15:15;;;;;;;1999.90;999.90;;;14.00;99.90;;;;;;5323260;26;20038;-81
2024/04/15 02:17:41;;;;;;;1999.90;999.90;;;14.10;99.90;;;;;;5309204;27;20367;-80
2024/04/15 02:20:08;;;;;;;1999.90;999.90;;;13.90;99.90;;;;;;5313200;26;20362;-80
2024/04/15 02:22:34;;;;;;;1999.90;999.90;;;13.80;99.90;;;;;;5345084;26;20944;-80
2024/04/15 02:25:00;;;;;;;1999.90;999.90;;;13.70;99.90;;;;;;5345127;26;20033;-80
2024/04/15 02:27:26;;;;;;;1999.90;999.90;;;13.50;99.90;;;;;;5311885;26;20042;-78
2024/04/15 02:29:53;;;;;;;1999.90;999.90;;;13.50;99.90;;;;;;5311346;27;20025;-80
2024/04/15 02:32:19;;;;;;;1999.90;999.90;;;13.40;99.90;;;;;;5340030;26;20477;-79
2024/04/15 02:34:45;;;;;;;1999.90;999.90;;;13.60;99.90;;;;;;5346558;26;20025;-80
2024/04/15 02:37:11;;;;;;;1999.90;999.90;;;13.60;99.90;;;;;;5345447;26;20033;-80
2024/04/15 02:39:41;;;;;;;1999.90;999.90;;;13.50;99.90;;;;;;5345957;26;20367;-80
2024/04/15 02:42:07;;;;;;;1999.90;999.90;;;13.40;99.90;;;;;;5347926;26;20041;-78
2024/04/15 02:44:33;;;;;;;1999.90;999.90;;;13.50;99.90;;;;;;5348123;26;20021;-79
2024/04/15 02:46:59;;;;;;;1999.90;999.90;;;13.50;99.90;;;;;;5339798;26;20037;-80
2024/04/15 02:49:25;;;;;;;1999.90;999.90;;;13.60;99.90;;;;;;5347968;26;20034;-79
2024/04/15 02:51:52;;;;;;;1999.90;999.90;;;13.50;99.90;;;;;;5347077;26;20032;-73
2024/04/15 02:54:18;;;;;;;1999.90;999.90;;;13.50;99.90;;;;;;5348293;26;20028;-73
2024/04/15 02:56:44;;;;;;;1999.90;999.90;;;13.40;99.90;;;;;;5325284;26;20033;-73
2024/04/15 02:59:10;;;;;;;1999.90;999.90;;;13.50;99.90;;;;;;5313654;26;20600;-73
2024/04/15 03:01:36;;;;;;;1999.90;999.90;;;13.60;99.90;;;;;;5312826;26;20050;-73
2024/04/15 03:04:02;;;;;;;1999.90;999.90;;;13.70;99.90;;;;;;5313859;26;20046;-73
2024/04/15 03:06:28;;;;;;;1999.90;999.90;;;13.80;99.90;;;;;;5312880;26;20038;-73
2024/04/15 03:08:54;;;;;;;1999.90;999.90;;;13.80;99.90;;;;;;5313918;26;20035;-73
2024/04/15 03:11:21;;;;;;;1999.90;999.90;;;13.80;99.90;;;;;;5313213;26;20037;-73
2024/04/15 03:13:47;;;;;;;1999.90;999.90;;;13.90;99.90;;;;;;5313507;26;20026;-73
2024/04/15 03:16:13;;;;;;;1999.90;999.90;;;13.90;99.90;;;;;;5312402;26;20033;-72
2024/04/15 03:18:39;;;;;;;1999.90;999.90;;;14.00;99.90;;;;;;5313076;27;20025;-73
2024/04/15 03:21:08;;;;;;;1999.90;999.90;;;14.00;99.90;;;;;;5312352;26;20038;-73
2024/04/15 03:23:35;;;;;;;1999.90;999.90;;;13.90;99.90;;;;;;5313487;26;20025;-73
2024/04/15 03:26:01;;;;;;;1999.90;999.90;;;13.80;99.90;;;;;;5312729;26;20033;-71
2024/04/15 03:28:27;;;;;;;1999.90;999.90;;;13.70;99.90;;;;;;5313575;26;20025;-72
2024/04/15 03:30:53;;;;;;;1999.90;999.90;;;13.60;99.90;;;;;;5311913;26;20030;-73
2024/04/15 03:33:19;;;;;;;1999.90;999.90;;;13.60;99.90;;;;;;5313799;26;20029;-73
2024/04/15 03:35:45;;;;;;;1999.90;999.90;;;13.50;99.90;;;;;;5319305;26;20033;-72
2024/04/15 03:38:11;;;;;;;1999.90;999.90;;;13.50;99.90;;;;;;5345941;26;20025;-72
2024/04/15 03:40:38;;;;;;;1999.90;999.90;;;13.50;99.90;;;;;;5339395;26;20034;-72
2024/04/15 03:43:04;;;;;;;1999.90;999.90;;;13.50;99.90;;;;;;5313344;26;20530;-72
2024/04/15 03:45:30;;;;;;;1999.90;999.90;;;13.50;99.90;;;;;;5312164;26;20072;-72
2024/04/15 03:47:56;;;;;;;1999.90;999.90;;;13.40;99.90;;;;;;5345978;26;20028;-72
2024/04/15 03:50:25;;;;;;;1999.90;999.90;;;13.30;99.90;;;;;;5347169;26;20033;-72
2024/04/15 03:52:51;;;;;;;1999.90;999.90;;;13.30;99.90;;;;;;5347695;26;20038;-72
2024/04/15 03:55:17;;;;;;;1999.90;999.90;;;13.30;99.90;;;;;;5344994;26;20029;-79
2024/04/15 03:57:43;;;;;;;1999.90;999.90;;;13.30;99.90;;;;;;5312454;27;20360;-79
2024/04/15 04:00:10;;;;;;;1999.90;999.90;;;13.20;99.90;;;;;;5311708;26;20029;-79
2024/04/15 04:02:36;;;;;;;1999.90;999.90;;;13.20;99.90;;;;;;5312399;27;20021;-79
2024/04/15 04:05:04;;;;;;;1999.90;999.90;;;13.20;99.90;;;;;;5312402;27;20376;-79
2024/04/15 04:07:31;;;;;;;1999.90;999.90;;;13.20;99.90;;;;;;5311837;26;20025;-79
2024/04/15 04:09:57;;;;;;;1999.90;999.90;;;13.10;99.90;;;;;;5311965;27;20375;-79
2024/04/15 04:12:24;;;;;;;1999.90;999.90;;;13.00;99.90;;;;;;5311724;26;20033;-79
2024/04/15 04:14:50;;;;;;;1999.90;999.90;;;13.00;99.90;;;;;;5312328;27;20021;-78
2024/04/15 04:17:16;;;;;;;1999.90;999.90;;;12.90;99.90;;;;;;5311301;26;20038;-79
2024/04/15 04:19:42;;;;;;;1999.90;999.90;;;12.90;99.90;;;;;;5312177;27;20038;-79
2024/04/15 04:22:08;;;;;;;1999.90;999.90;;;12.80;99.90;;;;;;5311894;26;20502;-78
2024/04/15 04:24:34;;;;;;;1999.90;999.90;;;12.80;99.90;;;;;;5311886;27;20038;-79
2024/04/15 04:27:00;;;;;;;1999.90;999.90;;;12.70;99.90;;;;;;5311380;26;20037;-79
2024/04/15 04:29:26;;;;;;;1999.90;999.90;;;12.60;99.90;;;;;;5311423;26;20025;-79
2024/04/15 04:31:52;;;;;;;1999.90;999.90;;;12.60;99.90;;;;;;5311362;26;20066;-79
2024/04/15 04:34:18;;;;;;;1999.90;999.90;;;12.60;99.90;;;;;;5311539;26;20482;-79
2024/04/15 04:36:45;;;;;;;1999.90;999.90;;;12.60;99.90;;;;;;5333335;26;20037;-79
2024/04/15 04:39:11;;;;;;;1999.90;999.90;;;12.70;99.90;;;;;;5345876;26;20053;-79
2024/04/15 04:41:37;;;;;;;1999.90;999.90;;;12.60;99.90;;;;;;5324832;26;20033;-79
2024/04/15 04:44:03;;;;;;;1999.90;999.90;;;12.70;99.90;;;;;;5312979;26;20474;-79
2024/04/15 04:46:29;;;;;;;1999.90;999.90;;;12.70;99.90;;;;;;5323104;26;20025;-79
2024/04/15 04:48:55;;;;;;;1999.90;999.90;;;12.60;99.90;;;;;;5344512;26;20024;-79
2024/04/15 04:51:22;;;;;;;1999.90;999.90;;;12.60;99.90;;;;;;5345747;26;20030;-79
2024/04/15 04:53:48;;;;;;;1999.90;999.90;;;12.60;99.90;;;;;;5346088;26;20029;-79
2024/04/15 04:56:14;;;;;;;1999.90;999.90;;;12.60;99.90;;;;;;5346069;26;20032;-79
2024/04/15 04:58:41;;;;;;;1999.90;999.90;;;12.60;99.90;;;;;;5346416;26;20029;-78
2024/04/15 05:01:14;;;;;;;1999.90;999.90;;;12.50;99.90;;;;;;5335424;26;20030;-79
2024/04/15 05:03:45;;;;;;;1999.90;999.90;;;12.40;99.90;;;;;;5311536;26;20038;-79
2024/04/15 05:06:12;;;;;;;1999.90;999.90;;;12.40;99.90;;;;;;5311403;26;20033;-79
2024/04/15 05:08:39;;;;;;;1999.90;999.90;;;12.30;99.90;;;;;;5311155;27;20046;-72
2024/04/15 05:11:05;;;;;;;1999.90;999.90;;;12.30;99.90;;;;;;5311681;26;20029;-72
2024/04/15 05:13:32;;;;;;;1999.90;999.90;;;12.30;99.90;;;;;;5312190;26;20025;-72
2024/04/15 05:16:04;;;;;;;1999.90;999.90;;;12.10;99.90;;;;;;5311223;26;20041;-71
2024/04/15 05:18:31;;;;;;;1999.90;999.90;;;12.00;99.90;;;;;;5311987;26;20037;-72
2024/04/15 05:20:59;;;;;;;1999.90;999.90;;;12.00;99.90;;;;;;5310989;26;20033;-72
2024/04/15 05:23:26;;;;;;;1999.90;999.90;;;12.00;99.90;;;;;;5311487;26;20026;-72
2024/04/15 05:25:53;;;;;;;1999.90;999.90;;;11.80;99.90;;;;;;5311453;26;20038;-72
2024/04/15 05:28:19;;;;;;;1999.90;999.90;;;11.80;99.90;;;;;;5311504;27;20479;-72
2024/04/15 05:30:45;;;;;;;1999.90;999.90;;;11.90;99.90;;;;;;5311321;26;20045;-72
2024/04/15 05:33:12;;;;;;;1999.90;999.90;;;12.00;99.90;;;;;;5310651;26;20081;-72
2024/04/15 05:35:38;;;;;;;1999.90;999.90;;;12.00;99.90;;;;;;5311254;26;20029;-72
2024/04/15 05:38:04;;;;;;;1999.90;999.90;;;12.10;99.90;;;;;;5311357;26;20030;-72
2024/04/15 05:40:30;;;;;;;1999.90;999.90;;;12.20;99.90;;;;;;5310995;26;20033;-73
2024/04/15 05:42:56;;;;;;;1999.90;999.90;;;12.20;99.90;;;;;;5311017;27;20478;-72
2024/04/15 05:45:22;;;;;;;1999.90;999.90;;;12.20;99.90;;;;;;5313606;26;20053;-72
2024/04/15 05:47:48;;;;;;;1999.90;999.90;;;12.20;99.90;;;;;;5345038;26;20033;-72
2024/04/15 05:50:14;;;;;;;1999.90;999.90;;;12.20;99.90;;;;;;5348532;26;20485;-72
2024/04/15 05:52:40;;;;;;;1999.90;999.90;;;12.20;99.90;;;;;;5348106;26;20029;-72
2024/04/15 05:55:07;;;;;;;1999.90;999.90;;;12.40;99.90;;;;;;5348554;26;20025;-72
2024/04/15 05:57:33;;;;;;;1999.90;999.90;;;12.50;99.90;;;;;;5315230;26;20033;-73
2024/04/15 06:00:02;;;;;;;1999.90;999.90;;;12.60;99.90;;;;;;5315193;26;20482;-72
2024/04/15 06:02:28;;;;;;;1999.90;999.90;;;12.70;99.90;;;;;;5312890;26;20033;-72
2024/04/15 06:04:54;;;;;;;1999.90;999.90;;;12.90;99.90;;;;;;5314469;26;20026;-72
2024/04/15 06:07:20;;;;;;;1999.90;999.90;;;13.10;99.90;;;;;;5313278;26;20467;-72
2024/04/15 06:09:47;;;;;;;1999.90;999.90;;;13.20;99.90;;;;;;5314648;26;20041;-72
2024/04/15 06:12:13;;;;;;;1999.90;999.90;;;13.30;99.90;;;;;;5313364;26;20045;-78
2024/04/15 06:14:39;;;;;;;1999.90;999.90;;;13.30;99.90;;;;;;5312237;27;20030;-79
2024/04/15 06:17:05;;;;;;;1999.90;999.90;;;13.30;99.90;;;;;;5312904;26;20470;-79
2024/04/15 06:19:31;;;;;;;1999.90;999.90;;;13.40;99.90;;;;;;5313744;27;20029;-78
2024/04/15 06:22:00;;;;;;;1999.90;999.90;;;13.40;99.90;;;;;;5312996;26;20041;-79
2024/04/15 06:24:26;;;;;;;1999.90;999.90;;;13.50;99.90;;;;;;5314629;26;20029;-78
2024/04/15 06:26:53;;;;;;;1999.90;999.90;;;13.70;99.90;;;;;;5312109;26;20379;-78
2024/04/15 06:29:19;;;;;;;1999.90;999.90;;;13.80;99.90;;;;;;5313589;27;20022;-78
2024/04/15 06:31:45;;;;;;;1999.90;999.90;;;13.90;99.90;;;;;;5313397;26;20042;-78
2024/04/15 06:34:11;;;;;;;1999.90;999.90;;;14.00;99.90;;;;;;5314503;26;20033;-78
2024/04/15 06:36:37;;;;;;;1999.90;999.90;;;14.20;99.90;;;;;;5331480;26;20041;-79
2024/04/15 06:39:03;;;;;;;1999.90;999.90;;;14.30;99.90;;;;;;5348019;26;20024;-79
2024/04/15 06:41:29;;;;;;;1999.90;999.90;;;14.50;99.90;;;;;;5329042;26;20030;-79
2024/04/15 06:43:55;;;;;;;1999.90;999.90;;;14.60;99.90;;;;;;5313309;27;20369;-79
2024/04/15 06:46:22;;;;;;;1999.90;999.90;;;14.60;99.90;;;;;;5322973;26;20037;-79
2024/04/15 06:48:48;;;;;;;1999.90;999.90;;;14.70;99.90;;;;;;5348309;26;20356;-79
2024/04/15 06:51:15;;;;;;;1999.90;999.90;;;14.80;99.90;;;;;;5346615;26;20041;-79
2024/04/15 06:53:41;;;;;;;1999.90;999.90;;;14.90;99.90;;;;;;5347976;26;20365;-79
2024/04/15 06:56:09;;;;;;;1999.90;999.90;;;15.00;99.90;;;;;;5334111;26;20029;-79
2024/04/15 06:58:36;;;;;;;1999.90;999.90;;;15.10;99.90;;;;;;5314305;26;20022;-80
2024/04/15 07:01:02;;;;;;;1999.90;999.90;;;15.10;99.90;;;;;;5310340;26;20045;-79
2024/04/15 07:03:28;;;;;;;1999.90;999.90;;;15.30;99.90;;;;;;5313618;27;20038;-78
2024/04/15 07:05:54;;;;;;;1999.90;999.90;;;15.40;99.90;;;;;;5312619;26;20025;-80
2024/04/15 07:08:20;;;;;;;1999.90;999.90;;;15.50;99.90;;;;;;5313213;27;20026;-79
2024/04/15 07:10:46;;;;;;;1999.90;999.90;;;15.70;99.90;;;;;;5312855;26;20037;-80
2024/04/15 07:13:12;;;;;;;1999.90;999.90;;;15.80;99.90;;;;;;5312974;26;20373;-79
2024/04/15 07:15:39;;;;;;;1999.90;999.90;;;15.90;99.90;;;;;;5312095;26;20033;-80
2024/04/15 07:18:05;;;;;;;1999.90;999.90;;;16.00;99.90;;;;;;5313229;26;20042;-72
2024/04/15 07:20:31;;;;;;;1999.90;999.90;;;16.10;99.90;;;;;;5313240;26;20037;-72
2024/04/15 07:22:57;;;;;;;1999.90;999.90;;;16.10;99.90;;;;;;5313463;26;20025;-72
2024/04/15 07:25:23;;;;;;;1999.90;999.90;;;16.20;99.90;;;;;;5313784;26;20029;-72
2024/04/15 07:27:49;;;;;;;1999.90;999.90;;;16.20;99.90;;;;;;5313632;26;20037;-72
2024/04/15 07:30:15;;;;;;;1999.90;999.90;;;16.20;99.90;;;;;;5312273;26;20033;-72
2024/04/15 07:32:41;;;;;;;1999.90;999.90;;;16.30;99.90;;;;;;5312790;26;20021;-72
2024/04/15 07:35:08;;;;;;;1999.90;999.90;;;16.30;99.90;;;;;;5312725;27;20030;-72
2024/04/15 07:37:34;;;;;;;1999.90;999.90;;;16.20;99.90;;;;;;5345665;26;20036;-71
2024/04/15 07:40:01;;;;;;;1999.90;999.90;;;16.20;99.90;;;;;;5347628;26;20029;-72
2024/04/15 07:42:27;;;;;;;1999.90;999.90;;;16.40;99.90;;;;;;5314063;26;20516;-72
2024/04/15 07:44:53;;;;;;;1999.90;999.90;;;16.60;99.90;;;;;;5313437;26;20051;-73
2024/04/15 07:47:19;;;;;;;1999.90;999.90;;;16.70;99.90;;;;;;5336225;26;20371;-73
2024/04/15 07:49:46;;;;;;;1999.90;999.90;;;16.70;99.90;;;;;;5347717;26;20024;-72
2024/04/15 07:52:12;;;;;;;1999.90;999.90;;;16.70;99.90;;;;;;5346900;26;20032;-72
2024/04/15 07:54:38;;;;;;;1999.90;999.90;;;16.80;99.90;;;;;;5347584;26;20025;-72
2024/04/15 07:57:04;;;;;;;1999.90;999.90;;;17.00;99.90;;;;;;5320264;26;20114;-74
2024/04/15 07:59:30;;;;;;;1999.90;999.90;;;17.20;99.90;;;;;;5313168;26;20034;-72
2024/04/15 08:01:57;;;;;;;1999.90;999.90;;;17.10;99.90;;;;;;5312441;26;20033;-72
2024/04/15 08:04:23;;;;;;;1999.90;999.90;;;17.20;99.90;;;;;;5312772;27;20478;-72
2024/04/15 08:06:49;;;;;;;1999.90;999.90;;;17.30;99.90;;;;;;5311069;26;20404;-71
2024/04/15 08:09:15;;;;;;;1999.90;999.90;;;17.30;99.90;;;;;;5312039;26;20033;-72
2024/04/15 08:11:42;;;;;;;1999.90;999.90;;;17.10;99.90;;;;;;5311942;26;20042;-73
2024/04/15 08:14:08;;;;;;;1999.90;999.90;;;17.00;99.90;;;;;;5312161;26;20022;-73
2024/04/15 08:16:34;;;;;;;1999.90;999.90;;;16.80;99.90;;;;;;5311659;26;20046;-73
2024/04/15 08:19:00;;;;;;;1999.90;999.90;;;16.60;99.90;;;;;;5312583;26;20034;-73
2024/04/15 08:21:26;;;;;;;1999.90;999.90;;;16.40;99.90;;;;;;5312380;26;20037;-81
2024/04/15 08:23:52;;;;;;;1999.90;999.90;;;16.20;99.90;;;;;;5311997;27;20021;-79
2024/04/15 08:26:18;;;;;;;1999.90;999.90;;;16.20;99.90;;;;;;5312670;26;20392;-79
2024/04/15 08:28:44;;;;;;;1999.90;999.90;;;15.90;99.90;;;;;;5312050;26;20025;-79
2024/04/15 08:31:11;;;;;;;1999.90;999.90;;;15.70;99.90;;;;;;5310558;26;20390;-80
2024/04/15 08:33:37;;;;;;;1999.90;999.90;;;15.60;99.90;;;;;;5311778;27;20026;-80
2024/04/15 08:36:03;;;;;;;1999.90;999.90;;;15.50;99.90;;;;;;5320747;26;20033;-80
2024/04/15 08:38:29;;;;;;;1999.90;999.90;;;15.50;99.90;;;;;;5346285;26;20615;-79
2024/04/15 08:41:00;;;;;;;1999.90;999.90;;;15.50;99.90;;;;;;5334910;26;20029;-79
2024/04/15 08:43:27;;;;;;;1999.90;999.90;;;15.70;99.90;;;;;;5311782;26;20029;-80
2024/04/15 08:46:03;;;;;;;1999.90;999.90;;;15.90;99.90;;;;;;5314170;26;20378;-79
2024/04/15 08:48:29;;;;;;;1999.90;999.90;;;16.30;99.90;;;;;;5343941;26;20370;-77
2024/04/15 08:50:55;;;;;;;1999.90;999.90;;;16.60;99.90;;;;;;5346018;26;20040;-77
2024/04/15 08:53:21;;;;;;;1999.90;999.90;;;16.80;99.90;;;;;;5346305;26;20173;-77
2024/04/15 08:55:49;;;;;;;1999.90;999.90;;;17.10;99.90;;;;;;5336652;26;20006;-78
2024/04/15 08:58:15;;;;;;;1999.90;999.90;;;17.20;99.90;;;;;;5311511;26;20022;-77
2024/04/15 09:00:41;;;;;;;1999.90;999.90;;;17.20;99.90;;;;;;5308996;26;20045;-77
2024/04/15 09:03:09;;;;;;;1999.90;999.90;;;17.20;99.90;;;;;;5309900;27;20030;-78
2024/04/15 09:05:35;;;;;;;1999.90;999.90;;;17.20;99.90;;;;;;5281414;26;20032;-76
2024/04/15 09:08:01;;;;;;;1999.90;999.90;;;17.30;99.90;;;;;;5311569;27;20026;-78
2024/04/15 09:10:27;;;;;;;1999.90;999.90;;;17.30;99.90;;;;;;5311683;26;20482;-78
2024/04/15 09:12:56;;;;;;;1999.90;999.90;;;17.40;99.90;;;;;;5311548;27;20034;-78
2024/04/15 09:15:25;;;;;;;1999.90;999.90;;;17.30;99.90;;;;;;5308587;26;20413;-78
2024/04/15 09:17:54;;;;;;;1999.90;999.90;;;17.50;99.90;;;;;;5312448;26;20030;-77
2024/04/15 09:20:21;;;;;;;1999.90;999.90;;;17.80;99.90;;;;;;5309744;26;20038;-79
2024/04/15 09:22:47;;;;;;;1999.90;999.90;;;17.90;99.90;;;;;;5309149;27;20026;-77
2024/04/15 09:25:13;;;;;;;1999.90;999.90;;;17.90;99.90;;;;;;5312309;26;20026;-77
2024/04/15 09:27:39;;;;;;;1999.90;999.90;;;17.90;99.90;;;;;;5311240;27;20029;-77
2024/04/15 09:30:06;;;;;;;1999.90;999.90;;;18.00;99.90;;;;;;5310222;26;20025;-77
2024/04/15 09:32:33;;;;;;;1999.90;999.90;;;18.00;99.90;;;;;;5310796;26;20026;-77
2024/04/15 09:35:04;;;;;;;1999.90;999.90;;;18.00;99.90;;;;;;5311233;27;20370;-77
2024/04/15 09:37:34;;;;;;;1999.90;999.90;;;17.90;99.90;;;;;;5340697;26;20371;-80
2024/04/15 09:40:08;;;;;;;1999.90;999.90;;;18.00;99.90;;;;;;5346317;26;20361;-79
2024/04/15 09:42:37;;;;;;;1999.90;999.90;;;17.90;99.90;;;;;;5310116;26;20034;-79
2024/04/15 09:45:05;;;;;;;1999.90;999.90;;;18.00;99.90;;;;;;5308528;26;20498;-79
2024/04/15 09:47:31;;;;;;;1999.90;999.90;;;18.10;99.90;;;;;;5335863;26;20102;-79
2024/04/15 09:49:57;;;;;;;1999.90;999.90;;;18.30;99.90;;;;;;5343844;26;20037;-80
2024/04/15 09:52:29;;;;;;;1999.90;999.90;;;18.40;99.90;;;;;;5344876;26;20032;-80
2024/04/15 09:55:07;;;;;;;1999.90;999.90;;;18.40;99.90;;;;;;5343280;26;20358;-80
2024/04/15 09:57:39;;;;;;;1999.90;999.90;;;18.40;99.90;;;;;;5310267;26;20039;-80
2024/04/15 10:00:12;;;;;;;1999.90;999.90;;;18.30;99.90;;;;;;5308283;26;20050;-80
2024/04/15 10:03:00;;;;;;;1999.90;999.90;;;18.00;99.90;;;;;;5281483;27;20038;-80
2024/04/15 10:05:30;;;;;;;1999.90;999.90;;;17.70;99.90;;;;;;5310991;26;20029;-80
2024/04/15 10:07:59;;;;;;;1999.90;999.90;;;17.70;99.90;;;;;;5311638;26;20042;-80
2024/04/15 10:10:28;;;;;;;1999.90;999.90;;;17.80;99.90;;;;;;5311548;26;20797;-80
2024/04/15 10:13:02;;;;;;;1999.90;999.90;;;17.80;99.90;;;;;;5280353;27;20379;-80
2024/04/15 10:15:28;;;;;;;1999.90;999.90;;;18.00;99.90;;;;;;5280179;26;20037;-79
2024/04/15 10:18:01;;;;;;;1999.90;999.90;;;18.10;99.90;;;;;;5280808;27;20033;-80
2024/04/15 10:20:37;;;;;;;1999.90;999.90;;;18.00;99.90;;;;;;5310544;26;20038;-80
2024/04/15 10:23:07;;;;;;;1999.90;999.90;;;17.90;99.90;;;;;;5308108;27;20022;-79
2024/04/15 10:25:34;;;;;;;1999.90;999.90;;;17.80;99.90;;;;;;5310056;26;20371;-80
2024/04/15 10:28:00;;;;;;;1999.90;999.90;;;17.70;99.90;;;;;;5308403;27;20034;-79
2024/04/15 10:30:27;;;;;;;1999.90;999.90;;;17.90;99.90;;;;;;5309620;26;20065;-81
2024/04/15 10:33:00;;;;;;;1999.90;999.90;;;17.90;99.90;;;;;;5314424;26;20033;-79
2024/04/15 10:35:26;;;;;;;1999.90;999.90;;;18.20;99.90;;;;;;5314004;26;20034;-79
2024/04/15 10:37:53;;;;;;;1999.90;999.90;;;18.40;99.90;;;;;;5313578;27;20026;-80
2024/04/15 10:40:42;;;;;;;1999.90;999.90;;;18.50;99.90;;;;;;5311745;26;20495;-79
2024/04/15 10:43:08;;;;;;;1999.90;999.90;;;18.30;99.90;;;;;;5312842;26;20029;-80
2024/04/15 10:45:34;;;;;;;1999.90;999.90;;;18.10;99.90;;;;;;5282597;26;20054;-80
2024/04/15 10:48:00;;;;;;;1999.90;999.90;;;18.10;99.90;;;;;;5348127;26;20029;-80
2024/04/15 10:50:27;;;;;;;1999.90;999.90;;;18.00;99.90;;;;;;5343078;26;20379;-80
2024/04/15 10:52:53;;;;;;;1999.90;999.90;;;17.90;99.90;;;;;;5313340;27;20030;-80
2024/04/15 10:55:20;;;;;;;1999.90;999.90;;;17.70;99.90;;;;;;5312901;26;20021;-80
2024/04/15 10:57:46;;;;;;;1999.90;999.90;;;17.50;99.90;;;;;;5312693;26;20025;-80
2024/04/15 11:00:13;;;;;;;1999.90;999.90;;;17.30;99.90;;;;;;5312093;26;20037;-79
2024/04/15 11:02:41;;;;;;;1999.90;999.90;;;17.10;99.90;;;;;;5313153;27;20034;-79
2024/04/15 11:05:10;;;;;;;1999.90;999.90;;;17.00;99.90;;;;;;5311168;26;20029;-79
2024/04/15 11:07:39;;;;;;;1999.90;999.90;;;16.90;99.90;;;;;;5338920;26;20039;-80
2024/04/15 11:10:07;;;;;;;1999.90;999.90;;;16.90;99.90;;;;;;5310775;27;20025;-79
2024/04/15 11:12:34;;;;;;;1999.90;999.90;;;16.90;99.90;;;;;;5311119;26;20029;-79
2024/04/15 11:15:00;;;;;;;1999.90;999.90;;;17.10;99.90;;;;;;5313723;26;20054;-79
2024/04/15 11:17:26;;;;;;;1999.90;999.90;;;17.00;99.90;;;;;;5312217;26;20037;-80
2024/04/15 11:20:19;;;;;;;1999.90;999.90;;;17.10;99.90;;;;;;5312768;26;20030;-80
2024/04/15 11:22:46;;;;;;;1999.90;999.90;;;17.10;99.90;;;;;;5312263;26;20021;-79
2024/04/15 11:25:13;;;;;;;1999.90;999.90;;;17.20;99.90;;;;;;5311941;26;20034;-79
2024/04/15 11:27:47;;;;;;;1999.90;999.90;;;17.20;99.90;;;;;;5310870;27;20030;-79
2024/04/15 11:30:15;;;;;;;1999.90;999.90;;;17.10;99.90;;;;;;5310388;26;20475;-80
2024/04/15 11:32:41;;;;;;;1999.90;999.90;;;17.10;99.90;;;;;;5283178;27;20373;-79
2024/04/15 11:35:09;;;;;;;1999.90;999.90;;;17.00;99.90;;;;;;5313382;26;20416;-81
2024/04/15 11:37:35;;;;;;;1999.90;999.90;;;16.90;99.90;;;;;;5343659;26;20029;-79
2024/04/15 11:40:01;;;;;;;1999.90;999.90;;;16.80;99.90;;;;;;5346913;26;20025;-79
2024/04/15 11:42:27;;;;;;;1999.90;999.90;;;16.80;99.90;;;;;;5311432;26;20505;-80
2024/04/15 11:44:53;;;;;;;1999.90;999.90;;;16.90;99.90;;;;;;5311063;27;20029;-79
2024/04/15 11:47:20;;;;;;;1999.90;999.90;;;16.80;99.90;;;;;;5335867;26;20036;-79
2024/04/15 11:49:47;;;;;;;1999.90;999.90;;;16.80;99.90;;;;;;5347077;26;20025;-79
2024/04/15 11:52:14;;;;;;;1999.90;999.90;;;16.80;99.90;;;;;;5347025;26;20375;-79
2024/04/15 11:54:40;;;;;;;1999.90;999.90;;;16.60;99.90;;;;;;5346542;26;20032;-80
2024/04/15 11:57:08;;;;;;;1999.90;999.90;;;16.50;99.90;;;;;;5318635;26;20385;-79